Albuquerque (West), New Mexico
Current Conditions -  °F | °C
As of 9:47 AM on Thursday 23 Oct 2014 (Local Time) from KAEG Reporting Station
Clear Clear  
Wind Chill: 59°   Ceiling: Unl
Heat Index: 59°   Visibility: 10mi
Dew Point: 45°   Wind: 3mph
Humidity: 59%   Direction: 110°ESE
Pressure: 30.31"   Gusts: NA
Location:  35.15°N, 106.8°W
Report Text: KAEG 231547Z 11003KT 10SM SKC 15/07 A3031
Loading
Personal Weather Stations






























Interactive Weather Map
Tropical Storm Tracking
New forecast layout! Learn more

10-Day Weather Forecast

Advertisements
Track Severe Weather on mobile